Heraklion International Nikos Kazantzakis Airport


Codes: LGIR/HER
Name: Heraklion International Nikos Kazantzakis Airport
City: Heraklion
Country: Greece
Elevation: 115 ft.
Wikipedia:

Photos at Heraklion International Nikos Kazantzakis Airport


   Photos courtesy of SpottingLog. You can add your own sightings and photos by signing up for a free trial today.



G-VKNG, 08-Jul-2008
© Oliver Perry


Weather at Heraklion International Nikos Kazantzakis Airport


Time (UTC)DescriptionTempratureWindCloud coverageVisibilityPressureHumidity
16-Jun-2024 03:00Clear Sky21°C4 mph, NW0%10000m1010hPa78%
16-Jun-2024 06:00Clear Sky24°C9 mph, NW1%10000m1011hPa66%
16-Jun-2024 09:00Clear Sky27°C11 mph, NW0%10000m1012hPa54%
16-Jun-2024 12:00Clear Sky28°C13 mph, NW2%10000m1011hPa50%
16-Jun-2024 15:00Broken Clouds26°C9 mph, NW58%10000m1011hPa53%
16-Jun-2024 18:00Broken Clouds24°C2 mph, NW56%10000m1012hPa60%
16-Jun-2024 21:00Clear Sky24°C2 mph, SW3%10000m1012hPa55%
17-Jun-2024 00:00Few Clouds23°C2 mph, W23%10000m1012hPa56%
17-Jun-2024 03:00Few Clouds23°C0 mph, SW17%10000m1012hPa59%
17-Jun-2024 06:00Clear Sky27°C7 mph, NW9%10000m1013hPa49%
17-Jun-2024 09:00Clear Sky28°C9 mph, NW3%10000m1013hPa50%
17-Jun-2024 12:00Clear Sky29°C11 mph, NW4%10000m1013hPa51%
17-Jun-2024 15:00Clear Sky28°C9 mph, NW0%10000m1013hPa52%
17-Jun-2024 18:00Clear Sky25°C2 mph, NW0%10000m1013hPa58%
17-Jun-2024 21:00Clear Sky25°C2 mph, SW0%10000m1014hPa51%
18-Jun-2024 00:00Clear Sky25°C2 mph, NW0%10000m1013hPa51%
18-Jun-2024 03:00Clear Sky24°C2 mph, NW0%10000m1013hPa56%
18-Jun-2024 06:00Clear Sky28°C11 mph, NW0%10000m1013hPa46%
18-Jun-2024 09:00Clear Sky29°C13 mph, NW0%10000m1013hPa46%
18-Jun-2024 12:00Clear Sky29°C16 mph, NW0%10000m1013hPa51%
18-Jun-2024 15:00Clear Sky28°C13 mph, NW0%10000m1013hPa53%
18-Jun-2024 18:00Clear Sky25°C9 mph, NW0%10000m1013hPa63%
18-Jun-2024 21:00Clear Sky25°C4 mph, W0%10000m1013hPa58%
19-Jun-2024 00:00Clear Sky24°C9 mph, NW0%10000m1011hPa63%
19-Jun-2024 03:00Clear Sky24°C9 mph, NW0%10000m1011hPa70%
19-Jun-2024 06:00Clear Sky27°C11 mph, NW0%10000m1012hPa63%
19-Jun-2024 09:00Clear Sky28°C13 mph, NW0%10000m1012hPa60%
19-Jun-2024 12:00Clear Sky28°C11 mph, NW0%10000m1012hPa59%
19-Jun-2024 15:00Clear Sky27°C9 mph, NW0%10000m1012hPa57%
19-Jun-2024 18:00Clear Sky24°C7 mph, NW1%10000m1012hPa77%
19-Jun-2024 21:00Clear Sky25°C4 mph, W0%10000m1012hPa57%
20-Jun-2024 00:00Clear Sky25°C2 mph, W0%10000m1011hPa55%
20-Jun-2024 03:00Clear Sky25°C7 mph, NW0%10000m1010hPa57%
20-Jun-2024 06:00Clear Sky28°C13 mph, NW0%10000m1011hPa54%
20-Jun-2024 09:00Clear Sky28°C13 mph, NW0%10000m1011hPa56%
20-Jun-2024 12:00Clear Sky28°C16 mph, NW0%10000m1010hPa55%
20-Jun-2024 15:00Clear Sky28°C13 mph, NW0%10000m1010hPa55%
20-Jun-2024 18:00Clear Sky25°C7 mph, NW0%10000m1010hPa58%
20-Jun-2024 21:00Clear Sky26°C4 mph, SW1%10000m1010hPa51%
21-Jun-2024 00:00Scattered Clouds26°C11 mph, NW31%10000m1010hPa59%